EKSB/SGD METAR and TAF weather

Enter ICAO airport designator
Station Type Date Time Source
EKSB METAR 2018/04/21 20:50 UTC NOAA

EKSB 212050Z AUTO 24005KT 9999NDV NCD 09/06 Q1019


Station Type Date Time Source
EKSB Decoded METAR 2018/04/21 20:50 UTC NOAA

Soenderborg Lufthavn, Denmark (EKSB) 54-58N 009-47E 14M
Apr 21, 2018 - 04:50 PM EDT / 2018.04.21 2050 UTC
Wind: from the WSW (240 degrees) at 6 MPH (5 KT):0
Temperature: 48 F (9 C)
Dew Point: 42 F (6 C)
Relative Humidity: 81%
Pressure (altimeter): 30.09 in. Hg (1019 hPa)
ob: EKSB 212050Z AUTO 24005KT 9999NDV NCD 09/06 Q1019
cycle: 21

Station Type Date Time Source
EKSB TAF 2016/01/27 09:03 UTC NOAA

TAF TAF EKSB 270856Z 2709/2721 23022KT 5000 -RA BR BKN008
TEMPO 2709/2721 24025G40KT 2000 RADZ BKN004


Example: see airport list